Time;durP1;ratioP1;P1;durP2;ratioP2;P2;SDS_P1;SDS_P2;PMS_P1;PMS_P2;Temp;Humidity;BMP_temperature;BMP_pressure;BME280_temperature;BME280_humidity;BME280_pressure;Samples;Min_cycle;Max_cycle;Signal;HPM_P1;HPM_P2
2023/01/02 00:01:18;;;;;;;14.32;7.15;;;13.10;86.10;;;;;;5004685;28;20065;-77
2023/01/02 00:03:43;;;;;;;10.85;6.57;;;13.10;85.90;;;;;;5007342;28;20104;-75
2023/01/02 00:06:09;;;;;;;13.95;6.65;;;13.10;85.90;;;;;;4999498;28;20128;-74
2023/01/02 00:08:35;;;;;;;15.15;8.10;;;13.20;85.70;;;;;;5003736;28;20478;-76
2023/01/02 00:11:00;;;;;;;17.60;7.43;;;13.10;85.60;;;;;;4995714;28;20580;-74
2023/01/02 00:13:26;;;;;;;14.73;7.00;;;13.10;85.40;;;;;;5006106;28;20467;-74
2023/01/02 00:15:52;;;;;;;17.00;6.82;;;13.20;85.40;;;;;;5001580;28;20034;-75
2023/01/02 00:18:17;;;;;;;15.20;6.40;;;13.30;85.30;;;;;;4999927;28;20386;-73
2023/01/02 00:20:43;;;;;;;14.73;6.80;;;13.20;85.30;;;;;;5008111;28;20088;-77
2023/01/02 00:23:09;;;;;;;15.32;7.00;;;13.30;85.30;;;;;;4998818;28;20384;-74
2023/01/02 00:25:35;;;;;;;12.80;6.68;;;13.30;85.30;;;;;;4999296;28;20359;-73
2023/01/02 00:28:01;;;;;;;16.75;6.82;;;13.30;85.40;;;;;;4995416;28;20041;-76
2023/01/02 00:30:27;;;;;;;16.83;6.20;;;13.30;85.80;;;;;;4996737;28;20026;-73
2023/01/02 00:32:52;;;;;;;15.07;6.65;;;13.30;86.00;;;;;;5000449;28;20040;-76
2023/01/02 00:35:18;;;;;;;13.98;7.47;;;13.20;86.30;;;;;;5007034;28;20568;-74
2023/01/02 00:37:44;;;;;;;14.20;6.95;;;13.20;86.50;;;;;;5002467;28;20029;-73
2023/01/02 00:40:12;;;;;;;18.75;7.05;;;13.30;86.50;;;;;;5006832;28;20034;-76
2023/01/02 00:42:41;;;;;;;13.70;6.95;;;13.30;86.50;;;;;;5007016;28;20034;-73
2023/01/02 00:45:08;;;;;;;15.25;6.30;;;13.30;86.50;;;;;;5003820;28;20048;-74
2023/01/02 00:47:34;;;;;;;16.23;6.40;;;13.30;86.40;;;;;;4998414;28;20102;-79
2023/01/02 00:49:59;;;;;;;17.33;6.63;;;13.30;86.30;;;;;;5002432;28;20204;-74
2023/01/02 00:52:25;;;;;;;14.10;5.90;;;13.40;86.20;;;;;;5005841;28;20049;-73
2023/01/02 00:54:51;;;;;;;14.43;6.43;;;13.40;86.20;;;;;;5005129;28;20288;-75
2023/01/02 00:57:17;;;;;;;13.90;6.38;;;13.40;86.00;;;;;;5002260;28;20034;-74
2023/01/02 00:59:42;;;;;;;12.88;5.90;;;13.50;86.00;;;;;;5004823;28;20018;-76
2023/01/02 01:02:08;;;;;;;15.65;5.72;;;13.50;86.10;;;;;;5008826;28;20121;-74
2023/01/02 01:04:35;;;;;;;13.38;5.53;;;13.50;86.10;;;;;;5006350;28;20137;-75
2023/01/02 01:07:01;;;;;;;12.43;5.90;;;13.50;86.20;;;;;;5007860;28;20292;-77
2023/01/02 01:09:26;;;;;;;11.85;5.93;;;13.60;86.00;;;;;;4994218;28;20038;-75
2023/01/02 01:11:52;;;;;;;12.05;5.53;;;13.60;86.10;;;;;;5012850;28;20053;-73
2023/01/02 01:14:18;;;;;;;12.90;5.47;;;13.60;86.10;;;;;;5008365;28;20074;-74
2023/01/02 01:16:44;;;;;;;14.48;5.65;;;13.60;86.10;;;;;;5003715;28;20056;-74
2023/01/02 01:19:10;;;;;;;10.40;4.85;;;13.60;86.10;;;;;;4994762;28;20566;-77
2023/01/02 01:21:35;;;;;;;13.38;5.07;;;13.60;86.10;;;;;;5008492;28;20041;-74
2023/01/02 01:24:01;;;;;;;15.85;5.50;;;13.60;86.00;;;;;;5009082;28;20034;-74
2023/01/02 01:26:27;;;;;;;14.68;5.90;;;13.60;86.00;;;;;;5003858;28;20430;-75
2023/01/02 01:28:54;;;;;;;14.57;5.18;;;13.60;86.00;;;;;;4999082;28;20530;-74
2023/01/02 01:31:20;;;;;;;12.55;4.95;;;13.60;85.90;;;;;;5002367;28;20026;-77
2023/01/02 01:33:46;;;;;;;12.55;5.10;;;13.60;85.90;;;;;;5004122;28;20046;-75
2023/01/02 01:36:16;;;;;;;13.90;4.45;;;13.60;85.90;;;;;;5009597;28;20046;-75
2023/01/02 01:38:43;;;;;;;11.45;4.80;;;13.70;86.00;;;;;;4996594;28;20546;-74
2023/01/02 01:41:11;;;;;;;11.65;4.50;;;13.60;86.00;;;;;;5002322;28;20120;-74
2023/01/02 01:43:41;;;;;;;13.70;5.30;;;13.60;86.30;;;;;;5003883;28;20374;-74
2023/01/02 01:46:26;;;;;;;13.00;5.03;;;13.60;86.40;;;;;;5001210;28;20045;-78
2023/01/02 01:48:56;;;;;;;;;;;13.60;86.40;;;;;;5001609;28;20504;-75
2023/01/02 01:51:24;;;;;;;10.77;4.13;;;13.60;86.20;;;;;;5000096;28;19922;-74
2023/01/02 01:53:55;;;;;;;10.52;4.22;;;13.60;86.40;;;;;;5006098;28;20576;-76
2023/01/02 01:56:21;;;;;;;9.93;4.53;;;13.60;86.40;;;;;;5004524;28;20038;-74
2023/01/02 01:58:46;;;;;;;10.23;4.47;;;13.60;86.30;;;;;;5003751;28;20107;-72
2023/01/02 02:01:15;;;;;;;9.10;4.30;;;13.60;86.20;;;;;;5003861;28;20442;-75
2023/01/02 02:03:43;;;;;;;9.75;4.18;;;13.60;86.40;;;;;;4996475;28;20121;-74
2023/01/02 02:06:09;;;;;;;12.35;4.57;;;13.60;86.50;;;;;;4998539;28;20508;-74
2023/01/02 02:09:04;;;;;;;12.05;4.32;;;13.60;86.60;;;;;;5001345;28;20125;-79
2023/01/02 02:11:30;;;;;;;10.50;4.13;;;13.60;86.70;;;;;;5007473;28;20042;-74
2023/01/02 02:14:00;;;;;;;11.25;4.20;;;13.50;87.00;;;;;;5007501;28;20046;-78
2023/01/02 02:16:40;;;;;;;10.15;4.38;;;13.50;87.20;;;;;;4998673;28;20030;-74
2023/01/02 02:19:38;;;;;;;13.63;4.40;;;13.50;87.30;;;;;;5010001;28;20727;-79
2023/01/02 02:22:31;;;;;;;9.80;4.53;;;13.50;87.30;;;;;;5008789;28;20045;-73
2023/01/02 02:25:09;;;;;;;10.75;4.50;;;13.50;87.40;;;;;;4996391;28;20033;-77
2023/01/02 02:28:12;;;;;;;10.85;4.55;;;13.40;87.60;;;;;;5011681;28;20061;-75
2023/01/02 02:30:52;;;;;;;9.20;3.63;;;13.40;87.70;;;;;;4993917;28;20042;-73
2023/01/02 02:33:40;;;;;;;12.75;4.20;;;13.40;87.80;;;;;;5006324;28;20049;-73
2023/01/02 02:36:09;;;;;;;10.48;3.92;;;13.30;88.00;;;;;;5006083;28;20067;-73
2023/01/02 02:38:49;;;;;;;14.48;4.22;;;13.30;88.10;;;;;;5003471;28;20471;-76
2023/01/02 02:41:37;;;;;;;13.63;4.30;;;13.30;88.20;;;;;;4985392;28;20038;-76
2023/01/02 02:44:37;;;;;;;11.88;4.35;;;13.30;88.10;;;;;;5002185;28;20085;-73
2023/01/02 02:47:29;;;;;;;12.30;3.80;;;13.30;88.20;;;;;;5000275;28;20026;-75
2023/01/02 02:50:09;;;;;;;13.20;4.10;;;13.30;88.30;;;;;;5003868;28;20054;-74
2023/01/02 02:52:47;;;;;;;10.43;3.67;;;13.30;88.30;;;;;;5005484;28;20481;-77
2023/01/02 02:55:31;;;;;;;6.38;3.47;;;13.30;88.30;;;;;;5007686;28;20043;-73
2023/01/02 02:57:59;;;;;;;9.98;3.78;;;13.30;88.40;;;;;;5008204;28;20498;-74
2023/01/02 03:00:25;;;;;;;9.85;4.10;;;13.30;88.40;;;;;;5005862;28;20114;-73
2023/01/02 03:02:51;;;;;;;10.82;3.88;;;13.30;88.50;;;;;;5009541;28;20113;-76
2023/01/02 03:05:38;;;;;;;11.55;4.00;;;13.20;88.50;;;;;;5004491;28;20041;-75
2023/01/02 03:08:21;;;;;;;7.95;3.10;;;13.20;88.50;;;;;;5007958;28;20061;-77
2023/01/02 03:10:56;;;;;;;10.07;3.72;;;13.30;88.30;;;;;;5003881;28;20029;-74
2023/01/02 03:13:39;;;;;;;10.50;4.07;;;13.20;88.20;;;;;;4993573;28;20137;-78
2023/01/02 03:16:38;;;;;;;9.02;3.60;;;13.20;88.40;;;;;;4999056;28;20042;-75
2023/01/02 03:19:12;;;;;;;11.57;3.72;;;13.20;88.40;;;;;;5001499;28;20033;-74
2023/01/02 03:21:43;;;;;;;8.95;3.60;;;13.30;88.40;;;;;;5000419;28;20034;-74
2023/01/02 03:24:12;;;;;;;9.45;3.20;;;13.20;88.40;;;;;;4998382;28;20037;-74
2023/01/02 03:26:42;;;;;;;10.80;4.22;;;13.20;88.30;;;;;;4999282;28;20080;-75
2023/01/02 03:29:15;;;;;;;9.75;3.70;;;13.30;88.30;;;;;;5011086;28;20067;-78
2023/01/02 03:31:46;;;;;;;8.25;3.88;;;13.30;88.30;;;;;;5002167;28;20042;-74
2023/01/02 03:34:19;;;;;;;12.23;4.13;;;13.20;88.40;;;;;;4998485;28;20075;-74
2023/01/02 03:36:52;;;;;;;10.40;3.60;;;13.20;88.60;;;;;;5016863;28;20042;-77
2023/01/02 03:39:23;;;;;;;9.93;3.95;;;13.30;88.60;;;;;;5001558;28;20086;-74
2023/01/02 03:41:59;;;;;;;10.73;3.75;;;13.20;88.70;;;;;;4998266;28;20038;-75
2023/01/02 03:44:30;;;;;;;12.02;3.83;;;13.20;88.70;;;;;;5001862;28;20018;-79
2023/01/02 03:47:09;;;;;;;8.70;3.50;;;13.20;88.80;;;;;;4999392;28;20117;-74
2023/01/02 03:49:40;;;;;;;9.88;3.70;;;13.20;88.60;;;;;;5002641;28;20432;-73
2023/01/02 03:52:05;;;;;;;9.52;3.47;;;13.10;88.30;;;;;;4989585;28;20034;-77
2023/01/02 03:54:31;;;;;;;8.15;3.25;;;13.10;88.10;;;;;;5000904;28;20396;-73
2023/01/02 03:57:06;;;;;;;10.43;3.63;;;13.10;87.80;;;;;;5005453;28;20041;-77
2023/01/02 03:59:54;;;;;;;7.13;3.33;;;13.10;87.60;;;;;;5009943;28;20021;-74
2023/01/02 04:02:31;;;;;;;6.95;3.60;;;13.10;87.50;;;;;;5004618;28;20038;-74
2023/01/02 04:05:19;;;;;;;8.35;4.32;;;13.10;87.70;;;;;;5001698;28;20041;-77
2023/01/02 04:07:54;;;;;;;7.43;4.43;;;12.70;87.30;;;;;;4998640;28;20395;-76
2023/01/02 04:10:21;;;;;;;7.47;4.03;;;12.20;88.00;;;;;;5005422;28;20034;-74
2023/01/02 04:12:51;;;;;;;5.60;3.08;;;12.00;88.50;;;;;;4998968;28;20026;-77
2023/01/02 04:15:21;;;;;;;4.95;2.65;;;11.60;89.10;;;;;;5002511;28;20085;-74
2023/01/02 04:17:55;;;;;;;4.57;2.72;;;11.40;89.70;;;;;;5002031;28;20033;-75
2023/01/02 04:20:26;;;;;;;4.60;2.35;;;11.40;89.80;;;;;;4995928;28;20504;-74
2023/01/02 04:23:05;;;;;;;5.78;3.30;;;11.30;90.00;;;;;;4995595;28;20118;-77
2023/01/02 04:25:43;;;;;;;6.50;3.70;;;11.20;90.30;;;;;;5009256;28;20025;-74
2023/01/02 04:28:24;;;;;;;9.32;5.97;;;11.30;90.40;;;;;;4999768;28;21305;-74
2023/01/02 04:30:56;;;;;;;8.63;5.22;;;11.20;90.20;;;;;;4998051;28;20092;-73
2023/01/02 04:33:24;;;;;;;7.53;4.90;;;11.20;90.20;;;;;;5003151;28;20030;-77
2023/01/02 04:35:50;;;;;;;7.93;4.57;;;11.10;90.00;;;;;;5007609;28;20497;-76
2023/01/02 04:38:16;;;;;;;7.25;4.20;;;11.10;90.00;;;;;;5003957;28;20068;-75
2023/01/02 04:40:41;;;;;;;7.25;3.97;;;11.10;89.90;;;;;;5000308;28;20401;-75
2023/01/02 04:43:18;;;;;;;6.25;3.80;;;11.10;90.00;;;;;;4995532;28;20030;-75
2023/01/02 04:45:45;;;;;;;5.82;3.65;;;11.10;89.90;;;;;;4997088;28;20101;-75
2023/01/02 04:48:11;;;;;;;6.20;4.05;;;11.10;89.90;;;;;;4990929;28;20033;-74
2023/01/02 04:50:36;;;;;;;6.68;4.00;;;11.10;89.90;;;;;;5003311;28;20030;-74
2023/01/02 04:53:02;;;;;;;6.45;4.28;;;11.10;89.90;;;;;;4991598;28;20364;-74
2023/01/02 04:55:27;;;;;;;6.38;4.53;;;11.10;90.00;;;;;;4998143;28;20466;-76
2023/01/02 04:57:53;;;;;;;6.55;4.22;;;11.10;89.80;;;;;;4993217;28;20399;-74
2023/01/02 05:00:19;;;;;;;7.75;4.55;;;11.10;89.90;;;;;;5000944;28;20027;-75
2023/01/02 05:02:44;;;;;;;6.80;4.53;;;11.10;89.70;;;;;;4991847;28;20410;-75
2023/01/02 05:05:10;;;;;;;6.43;4.22;;;11.10;89.90;;;;;;5000420;28;20330;-73
2023/01/02 05:07:37;;;;;;;8.82;5.63;;;11.10;89.90;;;;;;5001748;28;20029;-73
2023/01/02 05:10:04;;;;;;;11.70;8.50;;;11.00;89.90;;;;;;4996429;28;20100;-74
2023/01/02 05:12:33;;;;;;;17.55;11.43;;;11.00;90.00;;;;;;4995161;28;20123;-73
2023/01/02 05:14:59;;;;;;;18.70;12.90;;;11.00;89.80;;;;;;5001065;28;20153;-73
2023/01/02 05:17:25;;;;;;;22.58;14.27;;;10.90;89.80;;;;;;5000172;28;20026;-72
2023/01/02 05:19:51;;;;;;;20.20;14.05;;;10.90;89.90;;;;;;4999336;28;20018;-74
2023/01/02 05:25:00;;;;;;;24.67;16.88;;;11.00;89.70;;;;;;4998141;28;20571;-77
2023/01/02 05:27:26;;;;;;;22.90;17.50;;;10.90;89.80;;;;;;5007444;28;20335;-73
2023/01/02 05:29:52;;;;;;;24.23;17.23;;;11.00;89.70;;;;;;5001364;28;20477;-73
2023/01/02 05:32:17;;;;;;;23.70;17.73;;;10.90;89.50;;;;;;4996159;28;20026;-78
2023/01/02 05:34:43;;;;;;;22.90;16.42;;;10.90;89.30;;;;;;4999524;28;20474;-76
2023/01/02 05:37:09;;;;;;;21.40;16.00;;;10.80;89.30;;;;;;5004007;28;20033;-74
2023/01/02 05:39:34;;;;;;;19.17;13.40;;;10.70;89.30;;;;;;4992871;28;20076;-74
2023/01/02 05:42:00;;;;;;;19.65;14.73;;;10.70;89.20;;;;;;5005631;28;20030;-72
2023/01/02 05:44:25;;;;;;;21.40;15.02;;;10.70;89.20;;;;;;4997467;28;20033;-75
2023/01/02 05:46:52;;;;;;;20.45;15.02;;;10.70;89.20;;;;;;5004643;28;20057;-74
2023/01/02 05:49:18;;;;;;;20.65;15.57;;;10.70;89.10;;;;;;4997173;28;20499;-73
2023/01/02 05:51:43;;;;;;;18.90;13.38;;;10.70;89.10;;;;;;4999479;28;20037;-75
2023/01/02 05:54:09;;;;;;;16.85;12.32;;;10.70;89.10;;;;;;5001663;28;20041;-74
2023/01/02 05:56:35;;;;;;;17.35;11.80;;;10.70;89.20;;;;;;5006909;28;20504;-76
2023/01/02 05:59:00;;;;;;;18.40;11.60;;;10.60;88.90;;;;;;4997454;28;20319;-72
2023/01/02 06:01:28;;;;;;;17.30;11.57;;;10.60;89.20;;;;;;4997954;28;20062;-73
2023/01/02 06:03:58;;;;;;;17.27;10.30;;;10.60;89.00;;;;;;4997187;28;20103;-74
2023/01/02 06:06:30;;;;;;;16.58;9.93;;;10.50;89.00;;;;;;5011286;28;20557;-74
2023/01/02 06:08:58;;;;;;;16.08;10.43;;;10.50;89.20;;;;;;5004849;28;20025;-73
2023/01/02 06:11:24;;;;;;;16.25;9.32;;;10.50;88.90;;;;;;5011849;28;20049;-72
2023/01/02 06:13:49;;;;;;;14.70;9.20;;;10.40;89.10;;;;;;5006326;28;20426;-75
2023/01/02 06:16:15;;;;;;;17.77;10.35;;;10.40;89.00;;;;;;5000213;28;20499;-73
2023/01/02 06:18:41;;;;;;;15.05;10.48;;;10.40;89.00;;;;;;5003977;28;20029;-74
2023/01/02 06:21:12;;;;;;;14.60;9.60;;;10.40;88.90;;;;;;4994163;28;20088;-74
2023/01/02 06:23:39;;;;;;;15.25;10.38;;;10.40;88.90;;;;;;4998164;28;20671;-74
2023/01/02 06:26:06;;;;;;;19.65;11.05;;;10.40;89.00;;;;;;5011723;28;20469;-73
2023/01/02 06:28:32;;;;;;;17.52;12.25;;;10.30;89.00;;;;;;5006881;28;20048;-75
2023/01/02 06:31:06;;;;;;;18.20;11.35;;;10.40;89.10;;;;;;5001004;28;20402;-77
2023/01/02 06:33:32;;;;;;;21.00;12.25;;;10.40;89.00;;;;;;5009534;28;20367;-73
2023/01/02 06:35:59;;;;;;;18.92;12.88;;;10.40;89.10;;;;;;5000420;28;20550;-76
2023/01/02 06:38:25;;;;;;;21.40;12.65;;;10.30;89.20;;;;;;5009928;28;20030;-73
2023/01/02 06:40:52;;;;;;;22.70;12.55;;;10.30;89.30;;;;;;4998933;28;20057;-73
2023/01/02 06:43:18;;;;;;;24.20;14.13;;;10.30;89.20;;;;;;4991269;28;20022;-74
2023/01/02 06:45:43;;;;;;;20.27;12.93;;;10.30;89.20;;;;;;5001102;28;20133;-73
2023/01/02 06:48:09;;;;;;;21.13;13.20;;;10.30;89.30;;;;;;4997732;28;20030;-73
2023/01/02 06:50:35;;;;;;;21.48;13.73;;;10.20;89.50;;;;;;5000955;28;20038;-74
2023/01/02 06:53:01;;;;;;;23.17;14.02;;;10.20;89.60;;;;;;5001633;28;20029;-74
2023/01/02 06:55:27;;;;;;;21.42;14.05;;;10.20;89.60;;;;;;5005270;28;20022;-75
2023/01/02 06:57:52;;;;;;;21.58;13.90;;;10.20;89.70;;;;;;5001453;28;20035;-73
2023/01/02 07:00:18;;;;;;;21.73;13.48;;;10.30;89.60;;;;;;4998763;28;20029;-74
2023/01/02 07:02:43;;;;;;;18.83;11.27;;;10.30;89.60;;;;;;5001667;28;20378;-75
2023/01/02 07:05:09;;;;;;;17.00;10.38;;;10.20;89.50;;;;;;5006575;28;20029;-74
2023/01/02 07:07:36;;;;;;;19.15;9.90;;;10.20;89.50;;;;;;5010865;28;20041;-73
2023/01/02 07:10:02;;;;;;;15.98;9.48;;;10.10;89.40;;;;;;5004057;28;20029;-74
2023/01/02 07:12:28;;;;;;;15.50;9.15;;;10.10;89.40;;;;;;4997668;28;20383;-73
2023/01/02 07:14:53;;;;;;;15.38;8.50;;;10.10;89.30;;;;;;5004650;28;20500;-77
2023/01/02 07:17:19;;;;;;;13.25;9.30;;;10.10;89.30;;;;;;5003421;28;20038;-75
2023/01/02 07:19:45;;;;;;;14.82;8.38;;;10.10;89.30;;;;;;5005429;28;20089;-77
2023/01/02 07:22:10;;;;;;;12.95;7.95;;;10.10;89.40;;;;;;5001927;28;20040;-75
2023/01/02 07:24:36;;;;;;;13.98;7.55;;;10.20;89.30;;;;;;5005565;28;20040;-76
2023/01/02 07:27:02;;;;;;;13.70;7.95;;;10.20;89.30;;;;;;5005182;28;20441;-76
2023/01/02 07:29:27;;;;;;;14.27;7.63;;;10.20;89.20;;;;;;5008404;28;20041;-75
2023/01/02 07:31:53;;;;;;;13.57;7.88;;;10.20;89.20;;;;;;5008409;28;20087;-74
2023/01/02 07:34:18;;;;;;;14.05;8.63;;;10.20;89.20;;;;;;5002097;28;20148;-75
2023/01/02 07:36:44;;;;;;;12.57;7.68;;;10.20;89.30;;;;;;5007564;28;20406;-73
2023/01/02 07:39:10;;;;;;;13.95;8.85;;;10.10;89.40;;;;;;5007472;28;20049;-73
2023/01/02 07:41:36;;;;;;;14.82;8.48;;;10.10;89.50;;;;;;4994692;28;20032;-74
2023/01/02 07:44:01;;;;;;;13.88;8.27;;;10.10;89.60;;;;;;4999818;28;20395;-73
2023/01/02 07:46:27;;;;;;;15.38;8.65;;;10.10;89.60;;;;;;5001370;28;20117;-76
2023/01/02 07:48:52;;;;;;;15.68;9.95;;;10.20;89.70;;;;;;4995637;28;20431;-73
2023/01/02 07:51:18;;;;;;;18.55;10.10;;;10.20;89.70;;;;;;5000084;28;20037;-74
2023/01/02 07:53:44;;;;;;;14.95;9.68;;;10.20;89.60;;;;;;5004852;28;20057;-74
2023/01/02 07:56:09;;;;;;;16.85;10.45;;;10.10;89.60;;;;;;5005135;28;20056;-73
2023/01/02 07:58:35;;;;;;;15.65;9.63;;;10.10;89.60;;;;;;5004236;28;20126;-77
2023/01/02 08:01:11;;;;;;;17.63;9.93;;;10.10;89.60;;;;;;5002315;28;20364;-73
2023/01/02 08:03:37;;;;;;;18.38;9.57;;;10.10;89.70;;;;;;4991303;28;20474;-74
2023/01/02 08:06:09;;;;;;;16.20;9.55;;;10.10;89.80;;;;;;4995953;28;20045;-75
2023/01/02 08:08:35;;;;;;;16.75;10.07;;;10.10;89.70;;;;;;4999259;28;20034;-77
2023/01/02 08:11:09;;;;;;;13.32;8.45;;;10.10;89.70;;;;;;5000046;28;20064;-75
2023/01/02 08:13:35;;;;;;;18.02;10.00;;;10.20;89.60;;;;;;4998049;28;20519;-75
2023/01/02 08:16:09;;;;;;;16.23;9.63;;;10.10;89.60;;;;;;5001513;28;20041;-77
2023/01/02 08:18:35;;;;;;;16.33;9.13;;;10.10;89.70;;;;;;5003668;28;20033;-77
2023/01/02 08:21:01;;;;;;;13.35;8.93;;;10.10;89.50;;;;;;4998821;28;20049;-75
2023/01/02 08:23:27;;;;;;;13.75;9.20;;;10.20;89.50;;;;;;5001933;28;20423;-75
2023/01/02 08:25:59;;;;;;;14.15;7.97;;;10.20;89.40;;;;;;5002608;28;20041;-77
2023/01/02 08:28:26;;;;;;;16.30;8.52;;;10.20;89.20;;;;;;5004084;28;20033;-74
2023/01/02 08:30:51;;;;;;;11.95;7.35;;;10.20;89.10;;;;;;4998179;28;20294;-75
2023/01/02 08:33:17;;;;;;;13.25;8.45;;;10.20;89.10;;;;;;4999616;28;20615;-77
2023/01/02 08:35:43;;;;;;;14.60;8.93;;;10.20;89.10;;;;;;4999701;28;20076;-74
2023/01/02 08:38:10;;;;;;;12.82;7.90;;;10.30;89.20;;;;;;4995355;28;20050;-74
2023/01/02 08:40:36;;;;;;;14.65;8.02;;;10.30;89.30;;;;;;4994959;28;20030;-78
2023/01/02 08:43:02;;;;;;;11.27;7.28;;;10.20;89.20;;;;;;4993725;28;20066;-74
2023/01/02 08:45:27;;;;;;;15.18;8.30;;;10.20;89.10;;;;;;4994778;28;20053;-74
2023/01/02 08:47:53;;;;;;;11.20;6.93;;;10.20;89.00;;;;;;5003305;28;20105;-73
2023/01/02 08:50:20;;;;;;;11.65;6.97;;;10.20;89.10;;;;;;4993424;28;20534;-77
2023/01/02 08:52:46;;;;;;;10.10;6.93;;;10.20;89.00;;;;;;4996146;28;20030;-77
2023/01/02 08:55:12;;;;;;;11.70;7.28;;;10.20;88.80;;;;;;4991612;28;20608;-74
2023/01/02 08:57:37;;;;;;;11.07;6.88;;;10.20;88.70;;;;;;4992867;28;20486;-74
2023/01/02 09:00:04;;;;;;;11.25;6.70;;;10.30;88.70;;;;;;5001227;28;20041;-75
2023/01/02 09:02:29;;;;;;;11.68;8.10;;;10.30;88.70;;;;;;4997889;28;20030;-75
2023/01/02 09:04:55;;;;;;;12.60;8.70;;;10.30;88.80;;;;;;4998732;28;20636;-76
2023/01/02 09:07:21;;;;;;;10.85;7.20;;;10.30;88.80;;;;;;5005128;28;20354;-75
2023/01/02 09:09:46;;;;;;;11.05;6.65;;;10.30;88.70;;;;;;5005655;28;20037;-74
2023/01/02 09:12:12;;;;;;;10.00;6.40;;;10.30;88.80;;;;;;5002888;28;20507;-76
2023/01/02 09:14:38;;;;;;;10.18;6.22;;;10.30;88.60;;;;;;5000383;28;20046;-74
2023/01/02 09:17:03;;;;;;;10.63;5.60;;;10.40;88.50;;;;;;5003638;28;20407;-74
2023/01/02 09:19:29;;;;;;;10.98;7.10;;;10.40;88.30;;;;;;5006055;28;20041;-75
2023/01/02 09:21:55;;;;;;;9.95;6.32;;;10.40;88.20;;;;;;5005586;28;20199;-75
2023/01/02 09:24:21;;;;;;;10.18;6.05;;;10.50;88.10;;;;;;5012459;28;20025;-77
2023/01/02 09:26:46;;;;;;;9.65;5.53;;;10.60;88.10;;;;;;5012396;28;20402;-74
2023/01/02 09:29:13;;;;;;;10.85;6.10;;;10.60;87.80;;;;;;5013965;28;20045;-74
2023/01/02 09:31:39;;;;;;;9.07;5.40;;;10.70;87.70;;;;;;5006278;28;20099;-77
2023/01/02 09:34:05;;;;;;;9.82;5.38;;;10.80;87.50;;;;;;5013520;28;20044;-76
2023/01/02 09:36:31;;;;;;;9.93;5.50;;;10.90;87.40;;;;;;5006087;28;20077;-75
2023/01/02 09:38:59;;;;;;;7.97;5.32;;;10.90;87.20;;;;;;5005667;28;20030;-77
2023/01/02 09:41:37;;;;;;;9.77;5.18;;;11.00;87.20;;;;;;5011482;28;20037;-73
2023/01/02 09:44:24;;;;;;;9.27;5.10;;;11.00;86.90;;;;;;5011016;28;20036;-73
2023/01/02 09:46:53;;;;;;;9.13;5.25;;;11.00;86.80;;;;;;5001789;28;20474;-74
2023/01/02 09:49:30;;;;;;;10.30;5.60;;;11.00;86.80;;;;;;5009909;28;20033;-74
2023/01/02 09:51:56;;;;;;;12.70;5.93;;;11.00;86.80;;;;;;5004637;28;20056;-74
2023/01/02 09:54:26;;;;;;;8.32;5.13;;;11.10;86.70;;;;;;5009262;28;20138;-76
2023/01/02 09:57:22;;;;;;;11.90;6.00;;;11.10;86.70;;;;;;5008673;28;20516;-76
2023/01/02 09:59:59;;;;;;;11.65;6.78;;;11.10;86.80;;;;;;5007495;28;20036;-75
2023/01/02 10:02:31;;;;;;;11.50;6.35;;;11.10;86.80;;;;;;5013602;28;20069;-77
2023/01/02 10:05:35;;;;;;;9.73;6.18;;;11.10;86.90;;;;;;5013477;28;20030;-75
2023/01/02 10:08:08;;;;;;;12.90;5.50;;;11.10;86.90;;;;;;5009888;28;20567;-80
2023/01/02 10:10:41;;;;;;;9.70;5.20;;;11.10;86.70;;;;;;5012904;28;20526;-80
2023/01/02 10:13:23;;;;;;;13.35;5.75;;;11.10;86.80;;;;;;5015395;28;20306;-76
2023/01/02 10:15:51;;;;;;;10.40;5.13;;;11.10;86.80;;;;;;5012801;28;20067;-77
2023/01/02 10:18:30;;;;;;;9.90;4.53;;;11.20;86.60;;;;;;5010359;28;20432;-78
2023/01/02 10:21:05;;;;;;;10.25;6.03;;;11.20;86.40;;;;;;5011022;28;20468;-75
2023/01/02 10:23:40;;;;;;;10.63;4.85;;;11.30;86.30;;;;;;5009256;28;20048;-75
2023/01/02 10:26:14;;;;;;;10.43;4.35;;;11.30;86.10;;;;;;5013292;28;20046;-81
2023/01/02 10:28:49;;;;;;;9.43;4.50;;;11.30;86.10;;;;;;5003447;28;20186;-76
2023/01/02 10:31:48;;;;;;;8.05;4.15;;;11.30;86.10;;;;;;5010384;28;20075;-78
2023/01/02 10:34:20;;;;;;;8.10;3.72;;;11.30;85.90;;;;;;5002554;28;20323;-76
2023/01/02 10:36:46;;;;;;;8.57;3.90;;;11.30;85.90;;;;;;4996781;28;20108;-74
2023/01/02 10:39:18;;;;;;;7.20;4.13;;;11.30;85.50;;;;;;5000603;28;20084;-76
2023/01/02 10:41:51;;;;;;;25.00;16.88;;;11.30;85.50;;;;;;4999057;28;20045;-76
2023/01/02 10:44:26;;;;;;;11.20;7.43;;;11.20;85.50;;;;;;5003255;28;20025;-81
2023/01/02 10:46:53;;;;;;;7.05;2.95;;;11.20;85.50;;;;;;4997629;28;20037;-76
2023/01/02 10:49:20;;;;;;;10.70;4.80;;;11.10;85.50;;;;;;5006353;28;20018;-79
2023/01/02 10:52:16;;;;;;;8.40;3.95;;;11.20;85.50;;;;;;5005507;28;20029;-76
2023/01/02 10:54:50;;;;;;;7.80;3.10;;;11.20;85.40;;;;;;5006589;28;20053;-76
2023/01/02 10:57:23;;;;;;;9.38;4.28;;;11.30;85.20;;;;;;4998049;28;20128;-77
2023/01/02 10:59:57;;;;;;;7.80;3.55;;;11.30;85.30;;;;;;4999206;28;20039;-74
2023/01/02 11:02:29;;;;;;;8.02;2.72;;;11.30;85.40;;;;;;5000754;28;20049;-77
2023/01/02 11:05:00;;;;;;;8.80;2.95;;;11.30;85.40;;;;;;5006371;28;20026;-77
2023/01/02 11:07:27;;;;;;;9.05;3.20;;;11.30;85.40;;;;;;5002880;28;20116;-79
2023/01/02 11:09:54;;;;;;;8.10;2.75;;;11.10;85.80;;;;;;5004929;28;20045;-76
2023/01/02 11:12:20;;;;;;;5.93;2.70;;;11.10;85.90;;;;;;4997106;28;20444;-74
2023/01/02 11:14:46;;;;;;;6.10;2.53;;;11.10;86.50;;;;;;5002559;28;20046;-79
2023/01/02 11:17:22;;;;;;;6.95;3.05;;;11.00;87.10;;;;;;5001804;28;20325;-76
2023/01/02 11:19:50;;;;;;;4.30;2.55;;;11.00;87.50;;;;;;5000619;28;20116;-77
2023/01/02 11:22:18;;;;;;;5.15;2.70;;;11.00;87.60;;;;;;4998552;28;20063;-78
2023/01/02 11:25:06;;;;;;;5.07;3.15;;;10.90;87.70;;;;;;5001149;28;20022;-76
2023/01/02 11:27:34;;;;;;;6.35;2.90;;;10.90;88.00;;;;;;5002651;28;20186;-79
2023/01/02 11:30:02;;;;;;;6.57;2.85;;;10.90;88.00;;;;;;4998257;28;20034;-77
2023/01/02 11:32:37;;;;;;;4.85;2.33;;;10.90;88.10;;;;;;5012410;28;20030;-76
2023/01/02 11:35:04;;;;;;;6.95;2.65;;;10.80;87.80;;;;;;5009670;28;20111;-78
2023/01/02 11:37:30;;;;;;;6.35;2.70;;;10.80;87.70;;;;;;5007408;28;20046;-77
2023/01/02 11:40:23;;;;;;;7.60;2.72;;;10.80;87.30;;;;;;5004921;28;20057;-75
2023/01/02 11:45:36;;;;;;;5.85;2.40;;;10.70;87.20;;;;;;5000206;28;20068;-77
2023/01/02 11:48:22;;;;;;;5.72;2.53;;;10.70;87.10;;;;;;5000141;28;20084;-78
2023/01/02 11:50:49;;;;;;;6.10;2.33;;;10.70;87.20;;;;;;4999321;28;20100;-73
2023/01/02 11:53:20;;;;;;;7.68;2.75;;;10.60;87.30;;;;;;5004032;28;20526;-82
2023/01/02 11:56:03;;;;;;;6.90;2.80;;;10.60;87.40;;;;;;5000251;28;20029;-79
2023/01/02 11:58:29;;;;;;;4.70;2.20;;;10.70;87.20;;;;;;5004062;28;20032;-79
2023/01/02 12:01:03;;;;;;;6.80;2.60;;;10.70;87.30;;;;;;4999767;28;20425;-78
2023/01/02 12:03:31;;;;;;;5.55;2.78;;;10.70;87.40;;;;;;5009271;28;20021;-77
2023/01/02 12:06:05;;;;;;;3.05;1.88;;;10.70;87.30;;;;;;5006820;28;20132;-76
2023/01/02 12:09:10;;;;;;;4.45;1.88;;;10.70;87.10;;;;;;4999700;28;20033;-77
2023/01/02 12:11:50;;;;;;;8.70;2.30;;;10.60;87.20;;;;;;4965977;28;20284;-75
2023/01/02 12:14:22;;;;;;;3.97;2.00;;;10.60;87.00;;;;;;4979597;28;20049;-80
2023/01/02 12:17:11;;;;;;;5.70;2.10;;;10.50;87.50;;;;;;4983797;28;20032;-75
2023/01/02 12:19:49;;;;;;;8.13;2.63;;;10.50;87.90;;;;;;4983464;28;20058;-79
2023/01/02 12:23:00;;;;;;;6.20;2.33;;;10.60;88.00;;;;;;4979356;28;20407;-75
2023/01/02 12:25:36;;;;;;;6.95;2.63;;;10.70;88.10;;;;;;4977594;28;20116;-74
2023/01/02 12:28:19;;;;;;;7.85;2.17;;;10.70;87.90;;;;;;4984889;28;20382;-77
2023/01/02 12:31:27;;;;;;;5.57;2.10;;;10.80;88.00;;;;;;4982169;28;20085;-80
2023/01/02 12:33:52;;;;;;;6.95;2.83;;;10.80;87.80;;;;;;4979229;28;20038;-74
2023/01/02 12:36:41;;;;;;;3.83;1.90;;;10.80;87.50;;;;;;4990854;28;20034;-75
2023/01/02 12:39:43;;;;;;;4.22;1.80;;;10.80;87.40;;;;;;4989300;28;20034;-76
2023/01/02 12:42:39;;;;;;;3.40;1.42;;;10.70;87.30;;;;;;4982498;28;20058;-77
2023/01/02 12:45:36;;;;;;;5.75;2.15;;;10.80;87.30;;;;;;4977288;28;20081;-76
2023/01/02 12:48:12;;;;;;;3.67;1.60;;;10.80;87.30;;;;;;4990021;28;20120;-77
2023/01/02 12:51:19;;;;;;;8.40;2.22;;;10.70;87.20;;;;;;4988991;28;20045;-78
2023/01/02 12:53:54;;;;;;;5.10;1.90;;;10.60;87.10;;;;;;4983634;28;20242;-80
2023/01/02 12:56:37;;;;;;;5.15;2.17;;;10.70;87.70;;;;;;4976137;28;20165;-77
2023/01/02 12:59:21;;;;;;;5.63;2.03;;;10.70;87.60;;;;;;4974826;28;20491;-79
2023/01/02 13:02:14;;;;;;;4.50;1.80;;;10.70;87.30;;;;;;4977272;28;20073;-75
2023/01/02 13:04:46;;;;;;;7.72;3.00;;;10.80;87.50;;;;;;4985624;28;20018;-76